Domov               UVHVVR             MKGP            O straneh              
ZDRAVSTVENO VARSTVO RASTLIN
  MREŽA AGROMET. POSTAJ
 ► PROGNOSTIČNA OBVESTILA
AGROMETEOROLOŠKI PODATKI -
ARSO
OBVLADOVANJE TVEGANJ ZARADI
NEUGODNIH VREMENSKIH RAZMER
  ► NARAVNE NESREČE
  ► SUŠA/MOČA
  ► NAMAKANJE
  ► ŽLED (gozdarstvo)
KARTOGRAFSKI PRIKAZI
SPLETNE POVEZAVE
PROJEKTI IN PUBLIKACIJE

AGROMETEOROLOŠKA MREŽA: VREMENSKE POSTAJE IN FENOLOŠKA OPAZOVANJA

Pregled podatkov za lokacijo BOROVNICA, meteorološka postaja 27469

Pregled senzorjev na lokaciji

ID Ime Zadnja
vrednost
Datum
zadnje
spremembe
Tip
senzorja
1683 Temperatura 2 m ( °C) 21,81 °C 24.6.2017 22:00 Generic -40 - +60 °C
1684 Relativna vlaga 2 m (% RH) 99,93 % RH 24.6.2017 22:00 Generic 0 - 100 %
2195 Padavine 0.2 mm (mm) 0 mm 24.6.2017 22:00 Generic 0.2 mm
2199 Omočenost lista (U) 1 U 24.6.2017 22:00 A730WET

Pregled podatkov zadnjih 24 ur

Zap.
št.
Datum in čas BOROVNICA
Omočenost
lista
Padavine
0.2
mm
Relativna
vlaga
2
m
Temperatura
2
m
0 24.6.2017 21:00 1 0 99,93 21,81
1 24.6.2017 20:30 1 0 99,93 22,37
2 24.6.2017 20:00 1 0 99,93 23,25
3 24.6.2017 19:30 0 0 87,55 24,54
4 24.6.2017 19:00 0 0 79,24 26,54
5 24.6.2017 18:30 0 0 68,35 28,47
6 24.6.2017 18:00 0 0 64,74 29,65
7 24.6.2017 17:30 0 0 60,24 29,77
8 24.6.2017 17:00 0 0 58,56 30,5
9 24.6.2017 16:30 0 0 55,07 29,13
10 24.6.2017 16:00 0 0 66,79 28,72
11 24.6.2017 15:30 0 0 56,83 29,55
12 24.6.2017 15:00 0 0 64,62 25,62
13 24.6.2017 14:30 0 0 69,57 25,96
14 24.6.2017 14:00 0 0 55,21 29,65
15 24.6.2017 13:30 0 0 59,05 31,33
16 24.6.2017 13:00 0 0 46,84 32,21
17 24.6.2017 12:30 0 0 47,96 31,94
18 24.6.2017 12:00 0 0 48,47 31,23
19 24.6.2017 11:30 0 0 51,06 30,67
20 24.6.2017 11:00 0 0 53,46 30,57
21 24.6.2017 10:30 0 0 52,43 30,06
22 24.6.2017 10:00 0 0 55,19 29,35
23 24.6.2017 09:30 0 0 60,59 28,45
24 24.6.2017 09:00 0 0 62,22 27,28
25 24.6.2017 08:30 0 0 62,78 26,42
26 24.6.2017 08:00 0 0 68,84 24,76
27 24.6.2017 07:30 0 0 75,07 23,49
28 24.6.2017 07:00 0 0 74,16 23,47
29 24.6.2017 06:30 0 0 75,36 22,17
30 24.6.2017 06:00 1 0 85,03 20,1
31 24.6.2017 05:30 1 0 99,93 18,24
32 24.6.2017 05:00 0 0 99,93 17,39
33 24.6.2017 04:30 0 0 99,93 17,39
34 24.6.2017 04:00 0 0 99,93 17,95
35 24.6.2017 03:30 0 0 99,83 19,39
36 24.6.2017 03:00 0 0 81,1 20,34
37 24.6.2017 02:30 0 0 84,84 20,61
38 24.6.2017 02:00 0 0 80,44 21,2
39 24.6.2017 01:30 0 0 79,98 20,73
40 24.6.2017 01:00 0 0 81,54 21,54
41 24.6.2017 00:30 0 0 73,8 22,44
42 24.6.2017 00:00 0 0 73,38 22,71
43 23.6.2017 23:30 0 0 75,48 21,29
44 23.6.2017 23:00 0 0 83,47 20,98
© 2011 Ministrstvo za kmetijstvo, gozdarstvo in prehrano. Vse pravice pridržane.